Time;durP1;ratioP1;P1;durP2;ratioP2;P2;SDS_P1;SDS_P2;PMS_P1;PMS_P2;Temp;Humidity;BMP_temperature;BMP_pressure;BME280_temperature;BME280_humidity;BME280_pressure;Samples;Min_cycle;Max_cycle;Signal;HPM_P1;HPM_P2
2021/03/02 04:03:40;;;;;;;;;;;;;;;-2.36;100.00;101240.15;1717673;78;20645;-67
2021/03/02 04:06:08;;;;;;;;;;;;;;;-2.34;100.00;101244.74;1744650;82;20241;-65
2021/03/02 04:08:37;;;;;;;;;;;;;;;-2.33;100.00;101245.93;1727119;83;20230;-67
2021/03/02 04:11:05;;;;;;;;;;;;;;;-2.32;100.00;101239.91;1728627;80;21217;-64
2021/03/02 04:13:33;;;;;;;;;;;;;;;-2.32;100.00;101229.70;1730463;80;20933;-66
2021/03/02 04:16:03;;;;;;;;;;;;;;;-2.32;100.00;101230.98;1730348;80;21113;-65
2021/03/02 04:18:30;;;;;;;;;;;;;;;-2.31;100.00;101225.41;1728917;80;21136;-65
2021/03/02 04:20:58;;;;;;;;;;;;;;;-2.29;100.00;101228.73;1729236;83;20509;-64
2021/03/02 04:23:26;;;;;;;;;;;;;;;-2.28;100.00;101223.53;1729351;80;22694;-65
2021/03/02 04:25:54;;;;;;;;;;;;;;;-2.27;100.00;101224.39;1728907;82;20260;-63
2021/03/02 04:28:21;;;;;;;;;;;;;;;-2.24;100.00;101226.77;1730818;80;20221;-64
2021/03/02 04:30:49;;;;;;;;;;;;;;;-2.20;100.00;101220.59;1728721;80;20163;-63
2021/03/02 04:33:18;;;;;;;;;;;;;;;-2.14;100.00;101219.47;1734551;80;20226;-63
2021/03/02 04:35:46;;;;;;;;;;;;;;;-2.08;100.00;101224.28;1728687;81;21385;-63
2021/03/02 04:38:14;;;;;;;;;;;;;;;-2.01;100.00;101221.77;1727635;80;20229;-62
2021/03/02 04:40:43;;;;;;;;;;;;;;;-1.90;100.00;101221.22;1728944;81;20167;-63
2021/03/02 04:43:12;;;;;;;;;;;;;;;-1.79;100.00;101221.03;1727901;81;20605;-61
2021/03/02 04:45:42;;;;;;;;;;;;;;;-1.66;100.00;101224.25;1703694;82;20329;-64
2021/03/02 04:48:10;;;;;;;;;;;;;;;-1.55;100.00;101229.16;1728458;80;21534;-65
2021/03/02 04:50:40;;;;;;;;;;;;;;;-1.47;100.00;101227.02;1721505;82;21728;-65
2021/03/02 04:53:09;;;;;;;;;;;;;;;-1.39;100.00;101234.74;1730187;80;20226;-66
2021/03/02 04:55:38;;;;;;;;;;;;;;;-1.34;100.00;101227.64;1718607;80;20254;-66
2021/03/02 04:58:06;;;;;;;;;;;;;;;-1.28;100.00;101228.14;1731750;80;20243;-68
2021/03/02 05:00:34;;;;;;;;;;;;;;;-1.20;100.00;101230.74;1734976;80;21145;-67
2021/03/02 05:03:02;;;;;;;;;;;;;;;-1.15;100.00;101223.17;1731608;80;20156;-67
2021/03/02 05:05:30;;;;;;;;;;;;;;;-1.08;100.00;101227.50;1726105;81;20278;-66
2021/03/02 05:07:59;;;;;;;;;;;;;;;-1.00;100.00;101221.05;1756986;80;20212;-66
2021/03/02 05:10:26;;;;;;;;;;;;;;;-0.91;100.00;101218.45;1754058;80;20141;-66
2021/03/02 05:12:56;;;;;;;;;;;;;;;-0.80;100.00;101213.53;1722637;81;21365;-68
2021/03/02 05:15:24;;;;;;;;;;;;;;;-0.66;100.00;101213.22;1737812;81;20112;-68
2021/03/02 05:17:52;;;;;;;;;;;;;;;-0.52;100.00;101210.70;1746818;82;20220;-66
2021/03/02 05:20:20;;;;;;;;;;;;;;;-0.35;100.00;101202.03;1746191;82;20283;-64
2021/03/02 05:22:50;;;;;;;;;;;;;;;-0.17;100.00;101199.67;1746394;82;20141;-66
2021/03/02 05:25:19;;;;;;;;;;;;;;;0.03;100.00;101193.81;1745315;82;21202;-67
2021/03/02 05:27:46;;;;;;;;;;;;;;;0.20;100.00;101188.05;1746358;82;20320;-69
2021/03/02 05:30:15;;;;;;;;;;;;;;;0.37;100.00;101188.28;1745369;82;20605;-68
2021/03/02 05:32:43;;;;;;;;;;;;;;;0.54;100.00;101188.55;1742588;82;20165;-68
2021/03/02 05:35:12;;;;;;;;;;;;;;;0.75;100.00;101179.13;1744760;80;20327;-69
2021/03/02 05:37:39;;;;;;;;;;;;;;;0.95;100.00;101174.84;1745159;81;22712;-67
2021/03/02 05:40:10;;;;;;;;;;;;;;;1.13;100.00;101176.20;1745468;82;20256;-67
2021/03/02 05:42:39;;;;;;;;;;;;;;;1.31;100.00;101173.38;1742713;80;20257;-68
2021/03/02 05:45:07;;;;;;;;;;;;;;;1.42;100.00;101164.50;1744707;81;20339;-68
2021/03/02 05:47:35;;;;;;;;;;;;;;;1.50;100.00;101166.09;1745888;82;20299;-67
2021/03/02 05:50:04;;;;;;;;;;;;;;;1.59;100.00;101163.36;1745805;82;21374;-68
2021/03/02 05:52:32;;;;;;;;;;;;;;;1.69;100.00;101169.55;1746438;82;20711;-68
2021/03/02 05:55:02;;;;;;;;;;;;;;;1.79;100.00;101167.19;1744466;81;20283;-67
2021/03/02 05:57:30;;;;;;;;;;;;;;;1.92;100.00;101172.66;1745511;82;20311;-75
2021/03/02 05:59:58;;;;;;;;;;;;;;;2.05;100.00;101172.66;1745799;81;20515;-69
2021/03/02 06:02:26;;;;;;;;;;;;;;;2.22;100.00;101173.23;1744765;81;21449;-67
2021/03/02 06:04:56;;;;;;;;;;;;;;;2.48;100.00;101168.38;1734194;81;20222;-68
2021/03/02 06:07:24;;;;;;;;;;;;;;;2.82;100.00;101163.41;1721358;83;20213;-74
2021/03/02 06:09:52;;;;;;;;;;;;;;;3.33;100.00;101154.07;1728622;83;20297;-68
2021/03/02 06:12:20;;;;;;;;;;;;;;;3.81;100.00;101141.01;1718424;82;20764;-67
2021/03/02 06:14:48;;;;;;;;;;;;;;;4.01;100.00;101140.28;1726948;83;22381;-68
2021/03/02 06:17:20;;;;;;;;;;;;;;;4.08;100.00;101132.42;1720282;83;20225;-68
2021/03/02 06:19:47;;;;;;;;;;;;;;;4.49;100.00;101140.45;1706690;82;20238;-67
2021/03/02 06:22:36;;;;;;;;;;;;;;;4.97;100.00;101138.27;1734234;81;20228;-67
2021/03/02 06:25:06;;;;;;;;;;;;;;;5.48;100.00;101134.91;1730791;82;20167;-74
2021/03/02 06:27:34;;;;;;;;;;;;;;;6.02;100.00;101131.23;1746047;80;21273;-67
2021/03/02 06:30:11;;;;;;;;;;;;;;;6.43;100.00;101129.38;1702051;82;20189;-68
2021/03/02 06:32:47;;;;;;;;;;;;;;;6.77;100.00;101122.03;1734493;81;20238;-67
2021/03/02 06:35:42;;;;;;;;;;;;;;;7.04;100.00;101125.70;1731558;81;20138;-66
2021/03/02 06:38:09;;;;;;;;;;;;;;;7.23;100.00;101114.48;1680257;85;20290;-68
2021/03/02 06:40:43;;;;;;;;;;;;;;;7.37;100.00;101111.45;1710098;81;21547;-69
2021/03/02 06:43:34;;;;;;;;;;;;;;;7.59;100.00;101108.17;1749815;81;20507;-68
2021/03/02 06:46:11;;;;;;;;;;;;;;;7.92;100.00;101101.61;1735095;81;20246;-67
2021/03/02 06:48:52;;;;;;;;;;;;;;;8.35;100.00;101096.21;1725398;81;20236;-66
2021/03/02 06:51:29;;;;;;;;;;;;;;;8.57;100.00;101096.29;1737337;81;20311;-65
2021/03/02 06:54:07;;;;;;;;;;;;;;;8.78;99.44;101087.67;1733829;81;21150;-67
2021/03/02 06:56:38;;;;;;;;;;;;;;;9.03;93.96;101092.58;1735884;81;20215;-66
2021/03/02 06:59:14;;;;;;;;;;;;;;;9.12;85.60;101084.34;1730689;81;20130;-66
2021/03/02 07:01:44;;;;;;;;;;;;;;;9.17;81.34;101093.82;1728589;81;20281;-66
2021/03/02 07:04:13;;;;;;;;;;;;;;;9.20;82.48;101090.88;1732686;81;20218;-65
2021/03/02 07:06:46;;;;;;;;;;;;;;;9.13;78.12;101093.77;1740769;80;21120;-65
2021/03/02 07:09:16;;;;;;;;;;;;;;;8.81;70.50;101084.78;1738359;81;20293;-65
2021/03/02 07:11:44;;;;;;;;;;;;;;;8.17;72.04;101086.61;1740545;80;20220;-65
2021/03/02 07:14:13;;;;;;;;;;;;;;;7.68;80.88;101080.06;1737508;82;21050;-63
2021/03/02 07:16:44;;;;;;;;;;;;;;;7.45;86.81;101070.53;1740568;80;20511;-62
2021/03/02 07:19:16;;;;;;;;;;;;;;;7.37;87.95;101068.64;1736136;82;21371;-62
2021/03/02 07:21:45;;;;;;;;;;;;;;;7.41;88.08;101064.81;1740903;82;21064;-63
2021/03/02 07:24:14;;;;;;;;;;;;;;;7.62;90.12;101067.68;1741672;80;20304;-64
2021/03/02 07:26:44;;;;;;;;;;;;;;;7.86;83.60;101066.66;1741039;82;21060;-64
2021/03/02 07:29:12;;;;;;;;;;;;;;;7.97;80.18;101059.95;1739165;82;20288;-64
2021/03/02 07:31:41;;;;;;;;;;;;;;;8.09;76.35;101055.86;1737273;82;21268;-64
2021/03/02 07:34:10;;;;;;;;;;;;;;;8.24;77.28;101046.59;1740656;82;20228;-63
2021/03/02 07:36:41;;;;;;;;;;;;;;;8.40;73.23;101032.47;1741645;82;20248;-64
2021/03/02 07:39:14;;;;;;;;;;;;;;;8.48;71.76;101036.42;1718508;82;20601;-68
2021/03/02 07:41:42;;;;;;;;;;;;;;;8.52;69.67;101029.99;1737581;82;20304;-64
2021/03/02 07:44:10;;;;;;;;;;;;;;;8.62;70.85;101031.19;1739870;82;21366;-64
2021/03/02 07:46:42;;;;;;;;;;;;;;;8.72;69.77;101022.02;1740922;82;20514;-64
2021/03/02 07:49:26;;;;;;;;;;;;;;;8.82;70.23;101012.80;1741345;82;20243;-67
2021/03/02 07:52:03;;;;;;;;;;;;;;;8.90;71.02;101023.24;1736335;82;20609;-64
2021/03/02 07:54:35;;;;;;;;;;;;;;;9.01;70.42;101020.39;1740024;82;20288;-64
2021/03/02 07:57:19;;;;;;;;;;;;;;;9.04;68.88;101012.77;1739517;82;22274;-64
2021/03/02 07:59:47;;;;;;;;;;;;;;;8.98;70.41;101015.03;1739607;82;20145;-64
2021/03/02 08:02:20;;;;;;;;;;;;;;;8.80;64.44;101011.66;1718431;82;20248;-63
2021/03/02 08:04:49;;;;;;;;;;;;;;;8.55;64.68;101009.86;1739043;80;20405;-64
2021/03/02 08:07:27;;;;;;;;;;;;;;;8.26;63.51;101005.23;1738992;80;20264;-63
2021/03/02 08:09:55;;;;;;;;;;;;;;;8.03;68.67;101015.70;1737763;80;21195;-64
2021/03/02 08:12:30;;;;;;;;;;;;;;;7.95;72.47;101009.14;1739460;82;21108;-67
2021/03/02 08:14:59;;;;;;;;;;;;;;;8.02;73.60;101012.30;1738481;80;20222;-63
2021/03/02 08:17:27;;;;;;;;;;;;;;;8.08;74.59;101010.09;1738265;82;20233;-63
2021/03/02 08:20:07;;;;;;;;;;;;;;;8.07;72.01;101005.84;1739615;80;20598;-62
2021/03/02 08:22:44;;;;;;;;;;;;;;;7.82;71.89;100997.83;1740565;80;21187;-65
2021/03/02 08:25:25;;;;;;;;;;;;;;;7.64;75.89;101001.69;1740369;82;20336;-64
2021/03/02 08:27:55;;;;;;;;;;;;;;;7.57;78.61;100988.95;1740503;82;20308;-64
2021/03/02 08:30:25;;;;;;;;;;;;;;;7.57;81.84;100990.25;1737807;82;20238;-64
2021/03/02 08:32:53;;;;;;;;;;;;;;;7.49;80.24;100978.00;1740264;82;20628;-64
2021/03/02 08:35:46;;;;;;;;;;;;;;;7.21;77.59;100981.09;1740560;82;22100;-64
2021/03/02 08:38:15;;;;;;;;;;;;;;;6.75;81.24;100962.50;1686010;84;21036;-65
2021/03/02 08:40:45;;;;;;;;;;;;;;;6.11;85.70;100973.49;1691858;82;20316;-63
2021/03/02 08:43:18;;;;;;;;;;;;;;;5.61;94.05;100981.64;1692645;82;20235;-65
2021/03/02 08:45:54;;;;;;;;;;;;;;;5.23;99.31;100986.22;1686206;82;20399;-63
2021/03/02 08:48:30;;;;;;;;;;;;;;;4.88;100.00;100984.81;1698026;83;21414;-62
2021/03/02 08:51:01;;;;;;;;;;;;;;;4.58;100.00;100983.48;1671387;85;20230;-65
2021/03/02 08:53:43;;;;;;;;;;;;;;;4.34;100.00;100979.87;1694909;82;20409;-64
2021/03/02 08:56:17;;;;;;;;;;;;;;;4.18;100.00;100986.75;1692887;82;20223;-64
2021/03/02 08:58:47;;;;;;;;;;;;;;;4.09;100.00;100981.86;1696780;82;20187;-64
2021/03/02 09:01:16;;;;;;;;;;;;;;;4.06;100.00;100980.81;1696574;83;21278;-64
2021/03/02 09:03:45;;;;;;;;;;;;;;;4.00;100.00;100972.27;1688110;84;20199;-65
2021/03/02 09:06:22;;;;;;;;;;;;;;;3.89;100.00;100961.98;1692781;84;20271;-64
2021/03/02 09:08:53;;;;;;;;;;;;;;;3.75;100.00;100968.25;1688500;83;20818;-65
2021/03/02 09:11:22;;;;;;;;;;;;;;;3.65;100.00;100971.20;1693406;84;20315;-63
2021/03/02 09:13:50;;;;;;;;;;;;;;;3.59;100.00;100972.95;1697374;84;21394;-63
2021/03/02 09:16:33;;;;;;;;;;;;;;;3.56;100.00;100967.59;1684841;84;38874;-67
2021/03/02 09:19:11;;;;;;;;;;;;;;;3.52;100.00;100967.45;1691162;84;20550;-64
2021/03/02 09:21:41;;;;;;;;;;;;;;;3.45;100.00;100962.89;1696504;84;20502;-64
2021/03/02 09:24:14;;;;;;;;;;;;;;;3.41;100.00;100953.33;1691507;83;20245;-68
2021/03/02 09:26:51;;;;;;;;;;;;;;;3.38;100.00;100955.66;1696570;84;22221;-65
2021/03/02 09:29:19;;;;;;;;;;;;;;;3.42;100.00;100949.80;1696953;84;20142;-62
2021/03/02 09:31:47;;;;;;;;;;;;;;;3.47;100.00;100934.78;1696893;84;20582;-63
2021/03/02 09:34:15;;;;;;;;;;;;;;;3.49;100.00;100945.81;1695463;84;20212;-69
2021/03/02 09:36:44;;;;;;;;;;;;;;;3.51;100.00;100938.76;1699276;84;20428;-64
2021/03/02 09:39:23;;;;;;;;;;;;;;;3.55;100.00;100929.84;1705015;84;21582;-64
2021/03/02 09:41:52;;;;;;;;;;;;;;;3.58;100.00;100924.92;1697157;84;20800;-64
2021/03/02 09:44:23;;;;;;;;;;;;;;;3.57;100.00;100914.27;1705006;84;20135;-63
2021/03/02 09:46:52;;;;;;;;;;;;;;;3.53;100.00;100912.88;1705037;83;20274;-66
2021/03/02 09:49:38;;;;;;;;;;;;;;;3.51;100.00;100902.67;1726067;82;20215;-66
2021/03/02 09:52:08;;;;;;;;;;;;;;;3.52;100.00;100890.59;1693691;84;21385;-64
2021/03/02 09:54:35;;;;;;;;;;;;;;;3.50;100.00;100912.64;1719895;83;20231;-64
2021/03/02 09:57:05;;;;;;;;;;;;;;;3.47;100.00;100902.56;1713586;83;20639;-63
2021/03/02 09:59:33;;;;;;;;;;;;;;;3.46;100.00;100900.94;1692353;84;20311;-66
2021/03/02 10:02:01;;;;;;;;;;;;;;;3.49;100.00;100891.69;1703970;84;20223;-63
2021/03/02 10:04:29;;;;;;;;;;;;;;;3.52;100.00;100882.39;1704026;84;21147;-63
2021/03/02 10:07:10;;;;;;;;;;;;;;;3.54;100.00;100872.80;1692154;83;20273;-63
2021/03/02 10:09:40;;;;;;;;;;;;;;;3.58;100.00;100874.66;1688962;84;20248;-63
2021/03/02 10:12:12;;;;;;;;;;;;;;;3.58;100.00;100861.30;1690453;83;20237;-63
2021/03/02 10:14:44;;;;;;;;;;;;;;;3.56;100.00;100864.48;1683351;84;20225;-63
2021/03/02 10:17:11;;;;;;;;;;;;;;;3.62;100.00;100863.97;1722727;83;21293;-68
2021/03/02 10:19:41;;;;;;;;;;;;;;;3.71;100.00;100860.30;1684679;85;20399;-63
2021/03/02 10:22:12;;;;;;;;;;;;;;;3.76;100.00;100858.19;1693893;83;20135;-64
2021/03/02 10:24:41;;;;;;;;;;;;;;;3.76;100.00;100852.56;1710500;83;20552;-63
2021/03/02 10:27:16;;;;;;;;;;;;;;;3.80;100.00;100854.42;1723849;83;20270;-68
2021/03/02 10:29:44;;;;;;;;;;;;;;;3.79;100.00;100846.31;1711633;83;21157;-64
2021/03/02 10:32:12;;;;;;;;;;;;;;;3.69;100.00;100851.89;1717600;83;20333;-65
2021/03/02 10:34:45;;;;;;;;;;;;;;;3.54;100.00;100835.42;1721751;83;20493;-64
2021/03/02 10:37:14;;;;;;;;;;;;;;;3.40;100.00;100827.97;1717161;83;20307;-64
2021/03/02 10:39:44;;;;;;;;;;;;;;;3.25;100.00;100831.28;1708303;83;20315;-65
2021/03/02 10:42:13;;;;;;;;;;;;;;;3.15;100.00;100840.70;1707756;84;21385;-65
2021/03/02 10:44:41;;;;;;;;;;;;;;;3.09;100.00;100826.53;1708303;83;20129;-64
2021/03/02 10:47:10;;;;;;;;;;;;;;;3.06;100.00;100818.22;1701447;82;20219;-64
2021/03/02 10:49:38;;;;;;;;;;;;;;;3.06;100.00;100825.48;1703673;82;20290;-64
2021/03/02 10:52:07;;;;;;;;;;;;;;;3.11;100.00;100814.36;1700421;83;20255;-62
2021/03/02 10:54:36;;;;;;;;;;;;;;;3.13;100.00;100809.89;1708095;83;21424;-66
2021/03/02 10:57:04;;;;;;;;;;;;;;;3.18;100.00;100808.23;1683882;84;20223;-65
2021/03/02 10:59:33;;;;;;;;;;;;;;;3.20;100.00;100792.67;1683187;85;20361;-67
2021/03/02 11:02:01;;;;;;;;;;;;;;;3.19;100.00;100797.48;1681864;85;20247;-65
2021/03/02 11:04:29;;;;;;;;;;;;;;;3.16;100.00;100786.47;1683989;85;20281;-67
2021/03/02 11:06:57;;;;;;;;;;;;;;;3.19;100.00;100771.73;1684293;85;21205;-65
2021/03/02 11:09:25;;;;;;;;;;;;;;;3.24;100.00;100770.88;1684581;85;20157;-65
2021/03/02 11:11:53;;;;;;;;;;;;;;;3.32;100.00;100758.19;1683887;85;20236;-67
2021/03/02 11:14:21;;;;;;;;;;;;;;;3.40;100.00;100752.76;1684557;83;20215;-69
2021/03/02 11:16:49;;;;;;;;;;;;;;;3.47;100.00;100754.84;1682861;85;20233;-66
2021/03/02 11:19:17;;;;;;;;;;;;;;;3.56;100.00;100740.75;1684026;83;21169;-64
2021/03/02 11:21:46;;;;;;;;;;;;;;;3.63;100.00;100741.86;1683501;85;20148;-63
2021/03/02 11:24:13;;;;;;;;;;;;;;;3.68;100.00;100729.91;1682508;85;20244;-64
2021/03/02 11:26:41;;;;;;;;;;;;;;;3.70;100.00;100737.50;1683803;85;20183;-66
2021/03/02 11:29:10;;;;;;;;;;;;;;;3.70;100.00;100734.92;1683927;85;20311;-64
2021/03/02 11:31:39;;;;;;;;;;;;;;;3.65;100.00;100715.49;1694409;84;21217;-64
2021/03/02 11:34:09;;;;;;;;;;;;;;;3.56;100.00;100724.00;1696654;84;20298;-65
2021/03/02 11:36:38;;;;;;;;;;;;;;;3.43;100.00;100691.14;1693871;84;20144;-65
2021/03/02 11:39:08;;;;;;;;;;;;;;;3.32;100.00;100716.97;1692849;84;20306;-66
2021/03/02 11:41:36;;;;;;;;;;;;;;;3.25;100.00;100699.08;1688998;84;20500;-63
2021/03/02 11:44:05;;;;;;;;;;;;;;;3.19;100.00;100700.41;1690959;82;22591;-62
2021/03/02 11:46:33;;;;;;;;;;;;;;;3.19;100.00;100686.23;1688315;84;20504;-68
2021/03/02 11:49:02;;;;;;;;;;;;;;;3.16;100.00;100692.45;1689154;84;20313;-62
2021/03/02 11:51:30;;;;;;;;;;;;;;;3.13;100.00;100673.84;1690911;84;20195;-65
2021/03/02 11:53:57;;;;;;;;;;;;;;;3.08;100.00;100672.94;1683093;84;20274;-64
2021/03/02 11:56:25;;;;;;;;;;;;;;;3.03;100.00;100667.35;1682647;84;21285;-68
2021/03/02 11:58:53;;;;;;;;;;;;;;;3.00;100.00;100677.89;1681585;84;20159;-63
2021/03/02 12:01:21;;;;;;;;;;;;;;;3.00;100.00;100672.75;1681263;84;20326;-65
2021/03/02 12:03:50;;;;;;;;;;;;;;;2.99;100.00;100671.09;1682315;83;20285;-64
2021/03/02 12:06:19;;;;;;;;;;;;;;;2.99;100.00;100683.16;1682167;84;20225;-63
2021/03/02 12:08:49;;;;;;;;;;;;;;;2.94;100.00;100671.94;1687063;84;22611;-63
2021/03/02 12:11:18;;;;;;;;;;;;;;;2.88;100.00;100684.84;1685250;84;20568;-64
2021/03/02 12:13:46;;;;;;;;;;;;;;;2.86;100.00;100682.04;1688002;84;20245;-63
2021/03/02 12:16:14;;;;;;;;;;;;;;;2.83;100.00;100670.22;1685938;84;20232;-64
2021/03/02 12:18:43;;;;;;;;;;;;;;;2.78;100.00;100671.07;1686365;84;20320;-67
2021/03/02 12:21:13;;;;;;;;;;;;;;;2.73;100.00;100673.20;1682879;83;22282;-64
2021/03/02 12:23:41;;;;;;;;;;;;;;;2.69;100.00;100671.81;1696304;84;20214;-63
2021/03/02 12:26:09;;;;;;;;;;;;;;;2.65;100.00;100678.11;1696528;84;20132;-67
2021/03/02 12:28:37;;;;;;;;;;;;;;;2.63;100.00;100677.44;1689701;84;20385;-64
2021/03/02 12:31:07;;;;;;;;;;;;;;;2.60;100.00;100669.95;1696818;84;20252;-63
2021/03/02 12:33:35;;;;;;;;;;;;;;;2.57;100.00;100672.28;1696392;84;22372;-63
2021/03/02 12:36:05;;;;;;;;;;;;;;;2.56;100.00;100677.09;1696428;84;21062;-62
2021/03/02 12:38:33;;;;;;;;;;;;;;;2.55;100.00;100672.89;1701057;84;20332;-64
2021/03/02 12:41:01;;;;;;;;;;;;;;;2.50;100.00;100672.45;1705030;84;20326;-63
2021/03/02 12:43:30;;;;;;;;;;;;;;;2.47;100.00;100674.45;1705216;82;20279;-63
2021/03/02 12:45:58;;;;;;;;;;;;;;;2.45;100.00;100666.83;1704947;84;21249;-64
2021/03/02 12:48:26;;;;;;;;;;;;;;;2.43;100.00;100651.99;1704404;83;20132;-63
2021/03/02 12:50:56;;;;;;;;;;;;;;;2.40;100.00;100648.37;1704963;84;20294;-66
2021/03/02 12:53:24;;;;;;;;;;;;;;;2.40;100.00;100645.80;1703173;83;20299;-63
2021/03/02 12:55:52;;;;;;;;;;;;;;;2.39;100.00;100639.02;1703506;84;20219;-63
2021/03/02 12:58:19;;;;;;;;;;;;;;;2.37;100.00;100638.31;1704337;84;21639;-63
2021/03/02 13:00:48;;;;;;;;;;;;;;;2.36;100.00;100640.07;1723961;81;20315;-66
2021/03/02 13:03:18;;;;;;;;;;;;;;;2.34;100.00;100639.36;1687470;83;20678;-63
2021/03/02 13:05:47;;;;;;;;;;;;;;;2.33;100.00;100635.64;1680475;85;20237;-63
2021/03/02 13:08:16;;;;;;;;;;;;;;;2.31;100.00;100630.63;1685118;83;20219;-68
2021/03/02 13:10:43;;;;;;;;;;;;;;;2.28;100.00;100628.28;1685024;84;22630;-63
2021/03/02 13:13:12;;;;;;;;;;;;;;;2.27;100.00;100633.06;1680483;85;20319;-67
2021/03/02 13:15:42;;;;;;;;;;;;;;;2.27;100.00;100621.95;1715363;83;20195;-65
2021/03/02 13:18:10;;;;;;;;;;;;;;;2.27;100.00;100610.38;1715726;83;20622;-66
2021/03/02 13:20:39;;;;;;;;;;;;;;;2.28;100.00;100600.47;1713881;83;20313;-65
2021/03/02 13:23:06;;;;;;;;;;;;;;;2.26;100.00;100597.99;1716502;83;21214;-63
2021/03/02 13:25:35;;;;;;;;;;;;;;;2.27;100.00;100582.09;1713972;83;20297;-62
2021/03/02 13:28:05;;;;;;;;;;;;;;;2.28;100.00;100578.12;1682715;84;20174;-68
2021/03/02 13:30:33;;;;;;;;;;;;;;;2.28;100.00;100580.70;1678158;84;20347;-64
2021/03/02 13:33:07;;;;;;;;;;;;;;;2.28;100.00;100582.46;1714941;83;20279;-65
2021/03/02 13:35:37;;;;;;;;;;;;;;;2.28;100.00;100573.45;1712945;83;20594;-62
2021/03/02 13:38:05;;;;;;;;;;;;;;;2.27;100.00;100564.08;1678105;83;20237;-65
2021/03/02 13:40:34;;;;;;;;;;;;;;;2.24;100.00;100557.45;1669636;85;20632;-65
2021/03/02 13:43:02;;;;;;;;;;;;;;;2.22;100.00;100551.59;1707335;83;20305;-62
2021/03/02 13:45:30;;;;;;;;;;;;;;;2.21;100.00;100548.69;1706201;83;20321;-64
2021/03/02 13:47:59;;;;;;;;;;;;;;;2.21;100.00;100546.58;1705169;83;22752;-68
2021/03/02 13:50:29;;;;;;;;;;;;;;;2.20;100.00;100540.62;1674708;85;20332;-64
2021/03/02 13:52:59;;;;;;;;;;;;;;;2.18;100.00;100544.59;1667414;85;20471;-63
2021/03/02 13:55:26;;;;;;;;;;;;;;;2.19;100.00;100546.22;1687352;84;20880;-62
2021/03/02 13:57:55;;;;;;;;;;;;;;;2.18;100.00;100539.45;1689619;84;20330;-63
2021/03/02 14:00:24;;;;;;;;;;;;;;;2.18;100.00;100536.06;1670213;84;21559;-63
2021/03/02 14:02:53;;;;;;;;;;;;;;;2.18;100.00;100540.73;1684295;85;20491;-63
2021/03/02 14:05:25;;;;;;;;;;;;;;;2.17;100.00;100529.30;1679687;84;20206;-64
2021/03/02 14:08:05;;;;;;;;;;;;;;;2.15;100.00;100524.25;1681959;84;20309;-64
2021/03/02 14:10:33;;;;;;;;;;;;;;;2.14;100.00;100517.48;1684303;83;20301;-63
2021/03/02 14:13:01;;;;;;;;;;;;;;;2.10;100.00;100512.23;1654705;84;21214;-63
2021/03/02 14:15:31;;;;;;;;;;;;;;;2.09;100.00;100504.19;1707284;82;20310;-68
2021/03/02 14:17:59;;;;;;;;;;;;;;;2.10;100.00;100507.09;1708609;82;20616;-64
2021/03/02 14:20:29;;;;;;;;;;;;;;;2.10;100.00;100512.23;1689517;83;20319;-62
2021/03/02 14:22:59;;;;;;;;;;;;;;;2.07;100.00;100500.91;1684392;85;20283;-62
2021/03/02 14:25:28;;;;;;;;;;;;;;;2.07;100.00;100493.20;1674776;84;21258;-70
2021/03/02 14:27:56;;;;;;;;;;;;;;;2.08;100.00;100487.10;1667911;85;20488;-62
2021/03/02 14:30:25;;;;;;;;;;;;;;;2.06;100.00;100485.61;1683758;83;20593;-62
2021/03/02 14:32:53;;;;;;;;;;;;;;;2.04;100.00;100468.20;1677776;84;20709;-63
2021/03/02 14:35:22;;;;;;;;;;;;;;;2.04;100.00;100476.72;1684589;84;20277;-68
2021/03/02 14:37:50;;;;;;;;;;;;;;;2.02;100.00;100476.05;1712077;83;21367;-63
2021/03/02 14:40:18;;;;;;;;;;;;;;;2.00;100.00;100467.63;1674556;85;20483;-62
2021/03/02 14:42:55;;;;;;;;;;;;;;;2.00;100.00;100462.48;1681565;84;20277;-64
2021/03/02 14:45:26;;;;;;;;;;;;;;;2.00;100.00;100468.09;1685965;85;20316;-65
2021/03/02 14:47:56;;;;;;;;;;;;;;;1.98;100.00;100458.42;1682508;84;20296;-62
2021/03/02 14:50:25;;;;;;;;;;;;;;;1.95;100.00;100459.00;1685527;85;21208;-62
2021/03/02 14:52:55;;;;;;;;;;;;;;;1.93;100.00;100450.61;1688724;83;20512;-62
2021/03/02 14:55:23;;;;;;;;;;;;;;;1.91;100.00;100450.37;1683546;84;20234;-68
2021/03/02 14:57:51;;;;;;;;;;;;;;;1.88;100.00;100450.14;1674361;85;20313;-65
2021/03/02 15:00:24;;;;;;;;;;;;;;;1.84;100.00;100464.65;1683746;83;20450;-62
2021/03/02 15:02:55;;;;;;;;;;;;;;;1.80;100.00;100458.93;1684118;83;21374;-64
2021/03/02 15:05:24;;;;;;;;;;;;;;;1.77;100.00;100464.31;1698946;84;20526;-64
2021/03/02 15:07:52;;;;;;;;;;;;;;;1.74;100.00;100466.30;1699317;84;20264;-64
2021/03/02 15:10:20;;;;;;;;;;;;;;;1.69;100.00;100465.38;1697872;84;20240;-64
2021/03/02 15:12:49;;;;;;;;;;;;;;;1.64;100.00;100473.46;1698839;84;20247;-66
2021/03/02 15:15:18;;;;;;;;;;;;;;;1.61;100.00;100467.27;1699263;84;22530;-71
2021/03/02 15:17:46;;;;;;;;;;;;;;;1.59;100.00;100482.01;1699692;82;20363;-66
2021/03/02 15:20:15;;;;;;;;;;;;;;;1.55;100.00;100484.91;1699458;82;20221;-65
2021/03/02 15:22:43;;;;;;;;;;;;;;;1.51;100.00;100481.76;1693146;82;20235;-64
2021/03/02 15:25:12;;;;;;;;;;;;;;;1.50;100.00;100480.13;1701506;82;20202;-69
2021/03/02 15:27:41;;;;;;;;;;;;;;;1.48;100.00;100480.73;1674070;83;22129;-65
2021/03/02 15:30:10;;;;;;;;;;;;;;;1.47;100.00;100488.07;1680300;84;20118;-65
2021/03/02 15:32:42;;;;;;;;;;;;;;;1.45;100.00;100479.21;1712114;82;20569;-65
2021/03/02 15:35:12;;;;;;;;;;;;;;;1.45;100.00;100482.25;1677937;83;20223;-66
2021/03/02 15:37:46;;;;;;;;;;;;;;;1.44;100.00;100487.86;1711002;83;20354;-66
2021/03/02 15:40:18;;;;;;;;;;;;;;;1.44;100.00;100484.01;1677356;84;22125;-68
2021/03/02 15:42:46;;;;;;;;;;;;;;;1.45;100.00;100484.82;1682192;84;20228;-68
2021/03/02 15:45:15;;;;;;;;;;;;;;;1.43;100.00;100483.64;1696304;82;20243;-66
2021/03/02 15:47:43;;;;;;;;;;;;;;;1.44;100.00;100490.91;1695586;82;20250;-65
2021/03/02 15:50:14;;;;;;;;;;;;;;;1.43;100.00;100488.77;1696219;84;20307;-67
2021/03/02 15:52:42;;;;;;;;;;;;;;;1.44;100.00;100489.62;1681305;84;21219;-73
2021/03/02 15:55:11;;;;;;;;;;;;;;;1.42;100.00;100496.61;1683925;84;20156;-65
2021/03/02 15:57:39;;;;;;;;;;;;;;;1.38;100.00;100497.31;1686776;83;20201;-64
2021/03/02 16:00:08;;;;;;;;;;;;;;;1.34;100.00;100489.49;1694380;83;20487;-65
2021/03/02 16:02:38;;;;;;;;;;;;;;;1.31;100.00;100495.33;1682259;83;20243;-63
2021/03/02 16:05:11;;;;;;;;;;;;;;;1.26;100.00;100511.09;1687177;82;21209;-65
2021/03/02 16:07:50;;;;;;;;;;;;;;;1.23;100.00;100517.74;1688573;82;20532;-64
2021/03/02 16:10:19;;;;;;;;;;;;;;;1.19;100.00;100511.20;1682889;83;20138;-64
2021/03/02 16:12:54;;;;;;;;;;;;;;;1.17;100.00;100515.63;1683485;85;20209;-70
2021/03/02 16:15:24;;;;;;;;;;;;;;;1.14;100.00;100517.98;1699918;82;20489;-67
2021/03/02 16:17:52;;;;;;;;;;;;;;;1.13;100.00;100522.74;1672031;85;21389;-65
2021/03/02 16:20:21;;;;;;;;;;;;;;;1.10;100.00;100513.17;1681290;85;20131;-67
2021/03/02 16:23:06;;;;;;;;;;;;;;;1.07;100.00;100518.09;1678945;85;20232;-67
2021/03/02 16:25:34;;;;;;;;;;;;;;;1.04;100.00;100516.22;1676229;85;20240;-65
2021/03/02 16:28:04;;;;;;;;;;;;;;;1.01;100.00;100514.69;1681359;85;20234;-69
2021/03/02 16:30:31;;;;;;;;;;;;;;;0.96;100.00;100509.91;1680477;85;21198;-70
2021/03/02 16:32:59;;;;;;;;;;;;;;;0.93;100.00;100504.18;1686421;83;20325;-63
2021/03/02 16:35:28;;;;;;;;;;;;;;;0.89;100.00;100499.74;1689159;85;20598;-66
2021/03/02 16:37:55;;;;;;;;;;;;;;;0.88;100.00;100496.83;1687348;84;20358;-66
2021/03/02 16:40:24;;;;;;;;;;;;;;;0.86;100.00;100488.42;1685426;84;20299;-72
2021/03/02 16:42:53;;;;;;;;;;;;;;;0.85;100.00;100485.98;1692652;83;21361;-67
2021/03/02 16:45:21;;;;;;;;;;;;;;;0.84;100.00;100471.05;1690732;84;20235;-66
2021/03/02 16:47:53;;;;;;;;;;;;;;;0.83;100.00;100455.75;1686447;84;20607;-69
2021/03/02 16:50:22;;;;;;;;;;;;;;;0.81;100.00;100455.88;1719712;81;20505;-73
2021/03/02 16:52:55;;;;;;;;;;;;;;;0.79;100.00;100447.94;1717181;82;20807;-69
2021/03/02 16:55:43;;;;;;;;;;;;;;;0.78;100.00;100454.00;1714649;83;21138;-69